createdAt,value
2023-05-09T00:01:58.608Z,16.80
2023-05-09T00:05:59.832Z,16.90
2023-05-09T00:10:01.208Z,16.80
2023-05-09T00:14:02.577Z,16.70
2023-05-09T00:18:03.958Z,16.60
2023-05-09T00:22:05.132Z,16.50
2023-05-09T00:26:06.290Z,16.50
2023-05-09T00:30:08.075Z,16.60
2023-05-09T00:34:09.250Z,16.70
2023-05-09T00:38:10.407Z,16.80
2023-05-09T00:42:11.692Z,16.80
2023-05-09T00:46:12.992Z,16.80
2023-05-09T00:50:14.309Z,16.70
2023-05-09T00:54:15.582Z,16.70
2023-05-09T00:58:18.679Z,16.70
2023-05-09T01:02:20.939Z,16.70
2023-05-09T01:06:29.203Z,16.80
2023-05-09T01:10:55.369Z,16.80
2023-05-09T01:15:16.242Z,16.90
2023-05-09T01:19:38.203Z,16.90
2023-05-09T01:24:06.550Z,16.90
2023-05-09T01:28:11.844Z,17.00
2023-05-09T01:32:20.002Z,17.00
2023-05-09T01:36:23.475Z,16.90
2023-05-09T01:40:28.730Z,16.90
2023-05-09T01:44:37.071Z,17.00
2023-05-09T01:48:41.082Z,17.00
2023-05-09T01:52:43.788Z,17.00
2023-05-09T01:56:47.106Z,16.90
2023-05-09T02:00:49.817Z,16.90
2023-05-09T02:04:51.700Z,16.50
2023-05-09T02:08:53.062Z,16.40
2023-05-09T02:12:54.687Z,16.50
2023-05-09T02:16:55.853Z,16.40
2023-05-09T02:20:57.024Z,16.40
2023-05-09T02:24:58.257Z,16.30
2023-05-09T02:29:01.834Z,16.40
2023-05-09T02:33:06.244Z,16.50
2023-05-09T02:37:09.670Z,16.40
2023-05-09T02:41:14.855Z,16.30
2023-05-09T02:45:16.644Z,16.30
2023-05-09T02:49:31.457Z,16.30
2023-05-09T02:53:22.444Z,16.30
2023-05-09T02:57:23.625Z,16.20
2023-05-09T03:01:24.788Z,16.10
2023-05-09T03:05:25.950Z,16.10
2023-05-09T03:09:27.122Z,16.10
2023-05-09T03:13:28.379Z,16.10
2023-05-09T03:17:29.815Z,16.00
2023-05-09T03:21:31.308Z,16.10
2023-05-09T03:25:32.497Z,16.10
2023-05-09T03:29:33.663Z,16.00
2023-05-09T03:33:34.908Z,16.00
2023-05-09T03:37:36.063Z,16.00
2023-05-09T03:41:37.222Z,15.90
2023-05-09T03:45:38.491Z,16.00
2023-05-09T03:49:39.656Z,16.00
2023-05-09T03:53:40.858Z,16.00
2023-05-09T03:57:42.001Z,16.00
2023-05-09T04:01:43.213Z,16.00
2023-05-09T04:05:44.334Z,16.00
2023-05-09T04:09:46.091Z,16.00
2023-05-09T04:13:47.231Z,16.10
2023-05-09T04:17:48.414Z,16.00
2023-05-09T04:21:49.564Z,16.10
2023-05-09T04:25:51.557Z,16.10
2023-05-09T04:29:53.198Z,16.10
2023-05-09T04:33:54.450Z,16.10
2023-05-09T04:37:55.798Z,16.10
2023-05-09T04:41:57.345Z,16.20
2023-05-09T04:45:58.658Z,16.30
2023-05-09T04:49:59.872Z,16.30
2023-05-09T04:54:01.808Z,16.30
2023-05-09T04:58:03.035Z,16.20
2023-05-09T05:02:04.276Z,16.20
2023-05-09T05:06:05.867Z,16.30
2023-05-09T05:10:07.808Z,16.40
2023-05-09T05:14:08.955Z,16.40
2023-05-09T05:18:10.348Z,16.50
2023-05-09T05:22:11.477Z,16.50
2023-05-09T05:26:12.661Z,16.40
2023-05-09T05:30:14.954Z,16.50
2023-05-09T05:34:16.129Z,16.70
2023-05-09T05:38:17.303Z,16.90
2023-05-09T05:42:18.473Z,17.00
2023-05-09T05:46:19.814Z,17.10
2023-05-09T05:50:20.997Z,17.20
2023-05-09T05:54:22.156Z,17.50
2023-05-09T05:58:23.940Z,17.80
2023-05-09T06:02:25.110Z,17.90
2023-05-09T06:06:26.813Z,18.50
2023-05-09T06:10:28.079Z,18.70
2023-05-09T06:14:29.428Z,18.90
2023-05-09T06:18:30.579Z,18.60
2023-05-09T06:22:31.751Z,19.20
2023-05-09T06:26:32.958Z,19.40
2023-05-09T06:30:34.150Z,19.50
2023-05-09T06:34:35.339Z,19.70
2023-05-09T06:38:36.491Z,19.30
2023-05-09T06:42:37.683Z,19.30
2023-05-09T06:46:39.021Z,19.40
2023-05-09T06:50:40.326Z,19.60
2023-05-09T06:54:41.996Z,19.40
2023-05-09T06:58:43.348Z,19.50
2023-05-09T07:02:44.643Z,19.90
2023-05-09T07:06:45.802Z,19.90
2023-05-09T07:10:47.027Z,20.10
2023-05-09T07:14:48.503Z,20.00
2023-05-09T07:18:50.457Z,19.70
2023-05-09T07:22:51.632Z,20.40
2023-05-09T07:26:53.244Z,19.90
2023-05-09T07:30:55.445Z,19.50
2023-05-09T07:34:56.871Z,19.50
2023-05-09T07:38:58.178Z,20.00
2023-05-09T07:43:00.265Z,19.90
2023-05-09T07:47:02.576Z,19.90
2023-05-09T07:51:04.313Z,19.80
2023-05-09T07:55:05.999Z,19.50
2023-05-09T07:59:07.192Z,19.50
2023-05-09T08:03:08.621Z,20.00
2023-05-09T08:07:11.061Z,19.70
2023-05-09T08:11:12.234Z,20.40
2023-05-09T08:19:14.728Z,20.40
2023-05-09T08:23:15.906Z,19.90
2023-05-09T08:27:17.086Z,19.90
2023-05-09T08:31:18.336Z,19.80
2023-05-09T08:35:19.537Z,19.90
2023-05-09T08:39:22.025Z,20.10
2023-05-09T08:43:23.589Z,20.60
2023-05-09T08:47:25.777Z,20.10
2023-05-09T08:51:29.267Z,20.20
2023-05-09T08:55:31.755Z,20.10
2023-05-09T08:59:35.433Z,20.70
2023-05-09T09:03:37.791Z,20.90
2023-05-09T09:07:40.835Z,20.70
2023-05-09T09:11:42.708Z,20.80
2023-05-09T09:15:46.293Z,20.70
2023-05-09T09:19:49.554Z,20.60
2023-05-09T09:23:53.931Z,20.40
2023-05-09T09:27:55.070Z,20.10
2023-05-09T09:31:56.168Z,19.80
2023-05-09T09:35:57.393Z,19.60
2023-05-09T09:39:58.662Z,19.70
2023-05-09T09:44:08.337Z,19.50
2023-05-09T09:48:10.152Z,19.40
2023-05-09T09:52:11.362Z,19.70
2023-05-09T09:56:12.537Z,19.60
2023-05-09T10:00:19.377Z,19.80
2023-05-09T10:04:20.776Z,20.30
2023-05-09T10:08:21.945Z,20.60
2023-05-09T10:12:23.094Z,20.40
2023-05-09T10:16:35.763Z,20.90
2023-05-09T10:20:28.023Z,20.90
2023-05-09T10:24:34.816Z,20.80
2023-05-09T10:28:39.983Z,20.80
2023-05-09T10:32:53.162Z,21.20
2023-05-09T10:36:54.758Z,21.00
2023-05-09T10:40:56.192Z,21.00
2023-05-09T10:44:57.675Z,21.10
2023-05-09T10:48:59.022Z,21.00
2023-05-09T10:53:10.507Z,21.30
2023-05-09T10:57:11.649Z,21.30
2023-05-09T11:01:13.072Z,21.10
2023-05-09T11:05:17.415Z,21.20
2023-05-09T11:09:27.776Z,21.70
2023-05-09T11:13:35.927Z,21.70
2023-05-09T11:17:37.994Z,21.60
2023-05-09T11:21:42.925Z,21.10
2023-05-09T11:25:49.056Z,21.30
2023-05-09T11:29:52.434Z,21.60
2023-05-09T11:33:59.356Z,21.80
2023-05-09T11:38:03.406Z,21.90
2023-05-09T11:42:05.951Z,22.10
2023-05-09T11:46:07.510Z,21.90
2023-05-09T11:50:10.861Z,22.10
2023-05-09T11:54:13.936Z,22.00
2023-05-09T11:58:15.285Z,22.40
2023-05-09T12:02:16.668Z,22.20
2023-05-09T12:06:19.004Z,22.60
2023-05-09T12:10:22.193Z,21.80
2023-05-09T12:14:29.081Z,21.80
2023-05-09T12:18:30.437Z,22.30
2023-05-09T12:22:32.408Z,23.00
2023-05-09T12:26:33.556Z,22.80
2023-05-09T12:30:34.810Z,23.40
2023-05-09T12:34:35.987Z,23.20
2023-05-09T12:38:37.643Z,23.40
2023-05-09T12:42:39.026Z,23.50
2023-05-09T12:46:40.618Z,23.60
2023-05-09T12:50:45.528Z,22.90
2023-05-09T12:54:49.116Z,23.30
2023-05-09T12:58:54.292Z,23.60
2023-05-09T13:02:55.620Z,23.40
2023-05-09T13:06:59.342Z,24.20
2023-05-09T13:11:14.867Z,24.00
2023-05-09T13:15:06.134Z,23.70
2023-05-09T13:19:07.564Z,23.60
2023-05-09T13:23:08.868Z,23.70
2023-05-09T13:27:10.334Z,23.70
2023-05-09T13:31:11.646Z,24.00
2023-05-09T13:35:14.506Z,24.20
2023-05-09T13:39:15.941Z,24.10
2023-05-09T13:43:17.154Z,24.00
2023-05-09T13:47:18.355Z,23.70
2023-05-09T13:51:21.200Z,23.40
2023-05-09T13:55:22.358Z,23.40
2023-05-09T13:59:25.512Z,23.10
2023-05-09T14:03:26.894Z,22.60
2023-05-09T14:07:28.409Z,22.30
2023-05-09T14:11:29.586Z,22.60
2023-05-09T14:15:31.087Z,22.50
2023-05-09T14:19:32.821Z,22.70
2023-05-09T14:23:34.221Z,22.80
2023-05-09T14:27:36.238Z,23.00
2023-05-09T14:31:37.930Z,23.30
2023-05-09T14:35:41.376Z,23.50
2023-05-09T14:39:44.533Z,23.70
2023-05-09T14:43:45.777Z,23.40
2023-05-09T14:47:47.413Z,23.30
2023-05-09T14:51:48.532Z,23.40
2023-05-09T14:55:51.335Z,23.40
2023-05-09T14:59:52.630Z,23.40
2023-05-09T15:03:53.842Z,23.50
2023-05-09T15:07:55.034Z,23.40
2023-05-09T15:11:56.216Z,23.20
2023-05-09T15:15:57.406Z,21.80
2023-05-09T15:19:59.071Z,21.20
2023-05-09T15:24:00.218Z,21.10
2023-05-09T15:28:02.203Z,20.90
2023-05-09T15:32:03.459Z,20.70
2023-05-09T15:36:06.152Z,20.60
2023-05-09T15:40:08.594Z,20.70
2023-05-09T15:44:09.732Z,20.80
2023-05-09T15:48:12.103Z,20.80
2023-05-09T15:52:13.244Z,20.70
2023-05-09T15:56:14.420Z,20.60
2023-05-09T16:00:16.903Z,20.50
2023-05-09T16:04:18.230Z,20.40
2023-05-09T16:08:19.679Z,20.20
2023-05-09T16:12:20.876Z,20.30
2023-05-09T16:16:22.188Z,20.30
2023-05-09T16:20:24.309Z,20.30
2023-05-09T16:24:25.541Z,20.40
2023-05-09T16:28:27.387Z,20.30
2023-05-09T16:32:28.629Z,20.30
2023-05-09T16:36:31.764Z,20.30
2023-05-09T16:40:33.210Z,20.20
2023-05-09T16:44:34.488Z,20.20
2023-05-09T16:48:35.646Z,19.90
2023-05-09T16:52:36.908Z,19.90
2023-05-09T16:56:38.085Z,20.00
2023-05-09T17:00:39.372Z,19.80
2023-05-09T17:04:41.462Z,19.90
2023-05-09T17:08:43.887Z,19.80
2023-05-09T17:12:45.173Z,19.90
2023-05-09T17:16:49.451Z,19.80
2023-05-09T17:20:51.996Z,20.00
2023-05-09T17:24:53.650Z,20.10
2023-05-09T17:28:57.655Z,20.00
2023-05-09T17:32:59.224Z,19.80
2023-05-09T17:37:05.053Z,19.40
2023-05-09T17:41:06.272Z,19.20
2023-05-09T17:45:09.334Z,19.40
2023-05-09T17:49:12.431Z,19.30
2023-05-09T17:53:13.680Z,19.30
2023-05-09T17:57:15.023Z,19.30
2023-05-09T18:01:16.348Z,19.20
2023-05-09T18:05:17.652Z,18.80
2023-05-09T18:09:18.938Z,18.80
2023-05-09T18:13:21.046Z,18.70
2023-05-09T18:17:22.219Z,18.50
2023-05-09T18:21:23.449Z,17.90
2023-05-09T18:25:25.467Z,18.00
2023-05-09T18:29:26.703Z,17.60
2023-05-09T18:33:28.148Z,17.60
2023-05-09T18:37:29.295Z,17.80
2023-05-09T18:41:31.238Z,18.00
2023-05-09T18:45:33.589Z,17.90
2023-05-09T18:49:38.726Z,18.10
2023-05-09T18:53:43.010Z,18.20
2023-05-09T18:57:45.289Z,18.10
2023-05-09T19:01:47.296Z,18.20
2023-05-09T19:05:48.884Z,18.10
2023-05-09T19:09:51.108Z,18.10
2023-05-09T19:13:53.966Z,18.30
2023-05-09T19:17:55.930Z,18.30
2023-05-09T19:21:57.643Z,18.40
2023-05-09T19:25:59.308Z,18.30
2023-05-09T19:30:01.338Z,18.30
2023-05-09T19:34:07.917Z,18.00
2023-05-09T19:38:11.306Z,17.80
2023-05-09T19:42:13.053Z,17.60
2023-05-09T19:46:14.157Z,17.50
2023-05-09T19:50:15.479Z,17.70
2023-05-09T19:54:17.002Z,17.80
2023-05-09T19:58:18.263Z,17.80
2023-05-09T20:02:19.361Z,17.90
2023-05-09T20:06:20.594Z,17.90
2023-05-09T20:10:22.891Z,18.00
2023-05-09T20:14:24.327Z,18.00
2023-05-09T20:18:26.326Z,17.80
2023-05-09T20:22:27.504Z,17.80
2023-05-09T20:26:28.987Z,17.80
2023-05-09T20:30:30.113Z,17.80
2023-05-09T20:34:31.396Z,17.90
2023-05-09T20:38:32.541Z,17.90
2023-05-09T20:42:33.834Z,17.90
2023-05-09T20:46:35.101Z,17.70
2023-05-09T20:50:36.254Z,17.20
2023-05-09T20:54:37.623Z,17.00
2023-05-09T20:58:38.794Z,16.60
2023-05-09T21:02:40.023Z,16.60
2023-05-09T21:06:41.224Z,16.60
2023-05-09T21:10:42.572Z,16.40
2023-05-09T21:14:44.062Z,16.30
2023-05-09T21:18:45.338Z,16.20
2023-05-09T21:22:47.357Z,16.20
2023-05-09T21:26:48.559Z,16.50
2023-05-09T21:30:51.582Z,16.40
2023-05-09T21:34:52.995Z,16.20
2023-05-09T21:38:54.152Z,16.40
2023-05-09T21:42:55.333Z,16.40
2023-05-09T21:46:56.648Z,16.60
2023-05-09T21:51:02.878Z,16.60
2023-05-09T21:55:04.971Z,16.60
2023-05-09T21:59:06.144Z,16.60
2023-05-09T22:03:07.612Z,16.70
2023-05-09T22:07:08.895Z,16.70
2023-05-09T22:11:11.435Z,16.90
2023-05-09T22:15:13.300Z,16.80
2023-05-09T22:19:14.971Z,16.80
2023-05-09T22:23:16.052Z,17.00
2023-05-09T22:27:17.252Z,16.80
2023-05-09T22:31:18.561Z,17.10
2023-05-09T22:35:19.819Z,16.90
2023-05-09T22:39:21.310Z,17.00
2023-05-09T22:43:22.745Z,17.10
2023-05-09T22:47:23.968Z,17.00
2023-05-09T22:51:25.159Z,17.10
2023-05-09T22:55:26.530Z,17.10
2023-05-09T22:59:27.726Z,16.70
2023-05-09T23:03:28.973Z,16.60
2023-05-09T23:07:30.144Z,16.70
2023-05-09T23:11:31.296Z,16.90
2023-05-09T23:15:32.957Z,16.90
2023-05-09T23:19:34.079Z,16.60
2023-05-09T23:23:35.238Z,16.00
2023-05-09T23:27:39.168Z,15.80
2023-05-09T23:31:40.839Z,15.40
2023-05-09T23:35:42.807Z,15.50
2023-05-09T23:39:43.968Z,15.60
2023-05-09T23:43:45.237Z,15.50
2023-05-09T23:47:46.491Z,15.50
2023-05-09T23:51:47.752Z,15.50
2023-05-09T23:55:49.037Z,15.40
2023-05-09T23:59:50.173Z,15.50
